createdAt,value
2022-08-16T00:00:20.244Z,99.90
2022-08-16T00:02:50.107Z,99.90
2022-08-16T00:05:19.493Z,99.90
2022-08-16T00:07:47.384Z,99.90
2022-08-16T00:10:20.692Z,99.90
2022-08-16T00:12:49.891Z,99.90
2022-08-16T00:15:24.744Z,99.90
2022-08-16T00:18:12.863Z,99.90
2022-08-16T00:20:43.592Z,99.90
2022-08-16T00:23:10.667Z,99.90
2022-08-16T00:26:33.341Z,99.90
2022-08-16T00:28:24.926Z,99.90
2022-08-16T00:30:55.627Z,99.90
2022-08-16T00:33:28.785Z,99.90
2022-08-16T00:36:02.382Z,99.90
2022-08-16T00:38:40.817Z,99.90
2022-08-16T00:41:15.124Z,99.90
2022-08-16T00:43:44.397Z,99.90
2022-08-16T00:46:33.611Z,99.90
2022-08-16T00:49:06.963Z,99.90
2022-08-16T00:51:54.936Z,99.90
2022-08-16T00:54:24.665Z,99.90
2022-08-16T00:56:57.618Z,99.90
2022-08-16T00:59:32.972Z,99.90
2022-08-16T01:02:30.307Z,99.90
2022-08-16T01:05:09.654Z,99.90
2022-08-16T01:07:50.459Z,99.90
2022-08-16T01:10:32.063Z,99.90
2022-08-16T01:13:17.393Z,99.90
2022-08-16T01:15:52.636Z,99.90
2022-08-16T01:18:39.829Z,99.90
2022-08-16T01:21:16.222Z,99.90
2022-08-16T01:24:53.277Z,99.90
2022-08-16T01:27:05.446Z,99.90
2022-08-16T01:29:58.369Z,99.90
2022-08-16T01:32:33.187Z,99.90
2022-08-16T01:35:01.783Z,99.90
2022-08-16T01:37:35.539Z,99.90
2022-08-16T01:40:07.238Z,99.90
2022-08-16T01:42:37.133Z,99.90
2022-08-16T01:45:09.798Z,99.90
2022-08-16T01:47:49.498Z,99.90
2022-08-16T01:50:42.220Z,99.90
2022-08-16T01:53:11.173Z,99.90
2022-08-16T01:55:40.705Z,99.90
2022-08-16T01:58:07.760Z,99.90
2022-08-16T02:00:39.084Z,99.90
2022-08-16T02:03:05.942Z,99.90
2022-08-16T02:05:33.062Z,99.90
2022-08-16T02:08:02.247Z,99.90
2022-08-16T02:10:31.816Z,99.90
2022-08-16T02:13:04.903Z,99.90
2022-08-16T02:15:38.745Z,99.90
2022-08-16T02:18:12.424Z,99.90
2022-08-16T02:20:45.466Z,99.90
2022-08-16T02:23:13.100Z,99.90
2022-08-16T02:25:52.120Z,99.90
2022-08-16T02:28:23.727Z,99.90
2022-08-16T02:30:51.873Z,99.90
2022-08-16T02:33:24.857Z,99.90
2022-08-16T02:36:11.906Z,99.90
2022-08-16T02:38:41.979Z,99.90
2022-08-16T02:41:12.318Z,99.90
2022-08-16T02:43:39.687Z,99.90
2022-08-16T02:46:11.044Z,99.90
2022-08-16T02:48:39.173Z,99.90
2022-08-16T02:51:16.379Z,99.90
2022-08-16T02:53:46.814Z,99.90
2022-08-16T02:56:20.252Z,99.90
2022-08-16T02:58:50.195Z,99.90
2022-08-16T03:01:25.537Z,99.90
2022-08-16T03:04:39.255Z,99.90
2022-08-16T03:06:56.130Z,99.90
2022-08-16T03:09:25.469Z,99.90
2022-08-16T03:11:55.672Z,99.90
2022-08-16T03:14:24.773Z,99.90
2022-08-16T03:16:59.964Z,99.90
2022-08-16T03:19:47.334Z,99.90
2022-08-16T03:22:19.425Z,99.90
2022-08-16T03:24:57.394Z,99.90
2022-08-16T03:27:30.977Z,99.90
2022-08-16T03:30:00.415Z,99.90
2022-08-16T03:32:27.456Z,99.90
2022-08-16T03:34:57.419Z,99.90
2022-08-16T03:37:26.351Z,99.90
2022-08-16T03:39:56.218Z,99.90
2022-08-16T03:42:25.739Z,99.90
2022-08-16T03:45:02.962Z,99.90
2022-08-16T03:47:34.188Z,99.90
2022-08-16T03:50:26.301Z,99.90
2022-08-16T03:53:01.299Z,99.90
2022-08-16T03:55:45.053Z,99.90
2022-08-16T03:58:12.881Z,99.90
2022-08-16T04:00:40.920Z,99.90
2022-08-16T04:03:09.023Z,99.90
2022-08-16T04:05:39.170Z,99.90
2022-08-16T04:08:23.184Z,99.90
2022-08-16T04:10:52.203Z,99.90
2022-08-16T04:13:20.762Z,99.90
2022-08-16T04:16:06.835Z,99.90
2022-08-16T04:18:36.800Z,99.90
2022-08-16T04:21:06.697Z,99.90
2022-08-16T04:23:33.709Z,99.90
2022-08-16T04:26:02.657Z,99.90
2022-08-16T04:28:53.710Z,99.90
2022-08-16T04:31:16.966Z,99.90
2022-08-16T04:33:50.563Z,99.90
2022-08-16T04:36:20.553Z,99.90
2022-08-16T04:38:50.102Z,99.90
2022-08-16T04:41:19.301Z,99.90
2022-08-16T04:43:59.897Z,99.90
2022-08-16T04:47:01.027Z,99.90
2022-08-16T04:49:15.783Z,99.90
2022-08-16T04:51:45.234Z,99.90
2022-08-16T04:54:21.157Z,99.90
2022-08-16T04:56:48.767Z,99.90
2022-08-16T04:59:15.677Z,99.90
2022-08-16T05:01:59.034Z,99.90
2022-08-16T05:04:26.218Z,99.90
2022-08-16T05:06:57.525Z,99.90
2022-08-16T05:09:24.475Z,99.90
2022-08-16T05:11:51.508Z,99.90
2022-08-16T05:14:20.219Z,99.90
2022-08-16T05:17:08.368Z,99.90
2022-08-16T05:19:36.142Z,99.90
2022-08-16T05:22:03.594Z,99.90
2022-08-16T05:24:34.092Z,99.90
2022-08-16T05:27:11.229Z,99.90
2022-08-16T05:29:57.847Z,99.90
2022-08-16T05:32:32.713Z,99.90
2022-08-16T05:35:07.731Z,99.90
2022-08-16T05:37:42.523Z,99.90
2022-08-16T05:40:13.572Z,99.90
2022-08-16T05:42:47.628Z,99.90
2022-08-16T05:45:22.304Z,99.90
2022-08-16T05:48:00.408Z,99.90
2022-08-16T05:50:33.835Z,99.90
2022-08-16T05:53:04.110Z,99.90
2022-08-16T05:55:32.098Z,99.90
2022-08-16T05:58:06.814Z,99.90
2022-08-16T06:00:33.840Z,99.90
2022-08-16T06:03:04.004Z,99.90
2022-08-16T06:05:36.210Z,99.90
2022-08-16T06:08:08.286Z,99.90
2022-08-16T06:11:03.066Z,99.90
2022-08-16T06:13:37.826Z,99.90
2022-08-16T06:16:18.143Z,99.90
2022-08-16T06:18:45.521Z,99.90
2022-08-16T06:21:13.670Z,99.90
2022-08-16T06:23:54.195Z,99.90
2022-08-16T06:26:22.050Z,99.90
2022-08-16T06:28:49.428Z,99.90
2022-08-16T06:31:19.216Z,99.90
2022-08-16T06:33:51.925Z,99.90
2022-08-16T06:36:21.769Z,99.90
2022-08-16T06:38:55.934Z,99.90
2022-08-16T06:41:27.658Z,99.90
2022-08-16T06:43:55.243Z,99.90
2022-08-16T06:46:50.579Z,99.90
2022-08-16T06:49:17.887Z,99.90
2022-08-16T06:51:45.715Z,99.90
2022-08-16T06:54:17.559Z,99.90
2022-08-16T06:56:45.113Z,99.90
2022-08-16T06:59:14.951Z,99.90
2022-08-16T07:01:45.111Z,99.90
2022-08-16T07:04:32.599Z,99.90
2022-08-16T07:07:01.183Z,99.90
2022-08-16T07:09:29.600Z,99.90
2022-08-16T07:12:03.177Z,99.90
2022-08-16T07:14:33.971Z,99.90
2022-08-16T07:17:03.241Z,99.90
2022-08-16T07:20:02.445Z,99.90
2022-08-16T07:22:36.562Z,99.90
2022-08-16T07:25:05.380Z,99.90
2022-08-16T07:27:33.769Z,99.90
2022-08-16T07:30:38.569Z,99.90
2022-08-16T07:32:59.753Z,99.90
2022-08-16T07:35:29.280Z,99.90
2022-08-16T07:37:56.172Z,99.90
2022-08-16T07:40:49.051Z,99.90
2022-08-16T07:43:10.277Z,99.90
2022-08-16T07:45:38.609Z,99.90
2022-08-16T07:48:11.167Z,99.90
2022-08-16T07:50:55.837Z,99.90
2022-08-16T07:53:30.482Z,99.90
2022-08-16T07:56:04.265Z,99.90
2022-08-16T07:58:34.187Z,99.90
2022-08-16T08:01:10.958Z,99.90
2022-08-16T08:03:49.346Z,99.90
2022-08-16T08:06:25.081Z,99.90
2022-08-16T08:08:57.433Z,99.90
2022-08-16T08:11:29.662Z,99.90
2022-08-16T08:14:03.082Z,99.90
2022-08-16T08:16:32.303Z,99.90
2022-08-16T08:19:02.391Z,99.90
2022-08-16T08:21:59.559Z,99.90
2022-08-16T08:24:18.766Z,99.90
2022-08-16T08:26:50.169Z,99.90
2022-08-16T08:29:22.677Z,99.90
2022-08-16T08:31:52.835Z,99.90
2022-08-16T08:34:21.290Z,99.90
2022-08-16T08:36:54.436Z,99.90
2022-08-16T08:39:22.655Z,99.90
2022-08-16T08:41:52.491Z,99.90
2022-08-16T08:44:28.386Z,99.90
2022-08-16T08:47:01.520Z,99.90
2022-08-16T08:49:50.641Z,99.90
2022-08-16T08:52:34.297Z,99.90
2022-08-16T08:55:10.648Z,99.90
2022-08-16T08:57:47.293Z,99.90
2022-08-16T09:00:17.738Z,99.90
2022-08-16T09:02:51.725Z,99.90
2022-08-16T09:05:22.187Z,99.90
2022-08-16T09:08:00.227Z,99.90
2022-08-16T09:10:30.659Z,99.90
2022-08-16T09:12:59.308Z,99.90
2022-08-16T09:15:32.814Z,99.90
2022-08-16T09:18:27.026Z,99.90
2022-08-16T09:21:00.190Z,99.90
2022-08-16T09:23:36.676Z,99.90
2022-08-16T09:26:43.926Z,99.90
2022-08-16T09:29:14.721Z,99.90
2022-08-16T09:31:41.884Z,99.90
2022-08-16T09:34:09.271Z,99.90
2022-08-16T09:36:37.758Z,99.90
2022-08-16T09:39:16.573Z,99.90
2022-08-16T09:41:53.932Z,99.90
2022-08-16T09:45:09.247Z,99.90
2022-08-16T09:47:11.813Z,99.90
2022-08-16T09:49:41.358Z,99.90
2022-08-16T09:52:13.083Z,99.90
2022-08-16T09:54:44.640Z,99.90
2022-08-16T09:57:16.659Z,99.90
2022-08-16T09:59:43.943Z,99.90
2022-08-16T10:02:27.101Z,99.90
2022-08-16T10:04:58.729Z,99.90
2022-08-16T10:07:38.287Z,99.90
2022-08-16T10:10:12.583Z,99.90
2022-08-16T10:13:04.797Z,99.90
2022-08-16T10:15:32.318Z,99.90
2022-08-16T10:18:02.321Z,99.90
2022-08-16T10:20:51.283Z,99.90
2022-08-16T10:23:19.375Z,99.90
2022-08-16T10:27:17.787Z,99.90
2022-08-16T10:28:40.190Z,99.90
2022-08-16T10:31:16.854Z,99.90
2022-08-16T10:34:01.470Z,99.90
2022-08-16T10:36:39.148Z,99.90
2022-08-16T10:39:08.598Z,99.90
2022-08-16T10:41:35.690Z,99.90
2022-08-16T10:44:09.600Z,99.90
2022-08-16T10:46:41.496Z,99.90
2022-08-16T10:49:10.748Z,99.90
2022-08-16T10:52:02.536Z,99.90
2022-08-16T10:54:28.435Z,99.90
2022-08-16T10:57:00.966Z,99.90
2022-08-16T10:59:45.883Z,99.90
2022-08-16T11:02:58.100Z,99.90
2022-08-16T11:05:12.565Z,99.90
2022-08-16T11:07:54.944Z,99.90
2022-08-16T11:16:26.464Z,99.90
2022-08-16T11:19:05.906Z,99.90
2022-08-16T11:24:41.944Z,99.90
2022-08-16T11:27:24.073Z,99.90
2022-08-16T11:30:00.157Z,99.90
2022-08-16T11:32:31.494Z,99.90
2022-08-16T11:35:14.062Z,99.90
2022-08-16T11:38:47.315Z,99.90
2022-08-16T11:40:44.447Z,99.90
2022-08-16T11:43:16.485Z,97.20
2022-08-16T11:45:53.483Z,96.30
2022-08-16T11:48:22.382Z,91.80
2022-08-16T11:50:49.500Z,89.40
2022-08-16T11:53:17.249Z,80.40
2022-08-16T11:55:44.432Z,74.10
2022-08-16T11:58:14.271Z,68.10
2022-08-16T12:00:50.512Z,67.70
2022-08-16T12:03:19.227Z,64.10
2022-08-16T12:05:47.021Z,62.20
2022-08-16T12:08:19.981Z,57.10
2022-08-16T12:10:53.223Z,54.70
2022-08-16T12:13:20.093Z,53.80
2022-08-16T12:15:50.261Z,54.60
2022-08-16T12:18:20.772Z,54.70
2022-08-16T12:20:48.486Z,52.80
2022-08-16T12:23:15.499Z,53.40
2022-08-16T12:25:46.918Z,51.20
2022-08-16T12:28:13.935Z,53.30
2022-08-16T12:30:46.312Z,51.80
2022-08-16T12:33:25.640Z,52.50
2022-08-16T12:35:53.235Z,52.70
2022-08-16T12:38:41.647Z,51.10
2022-08-16T12:41:08.137Z,50.20
2022-08-16T12:43:36.409Z,50.20
2022-08-16T12:46:09.835Z,49.20
2022-08-16T12:48:55.724Z,50.60
2022-08-16T12:51:58.033Z,46.80
2022-08-16T12:54:22.238Z,39.40
2022-08-16T12:56:50.528Z,27.20
2022-08-16T12:59:20.518Z,19.30
2022-08-16T13:01:50.578Z,23.00
2022-08-16T13:04:25.171Z,26.90
2022-08-16T13:06:53.019Z,31.60
2022-08-16T13:09:26.797Z,34.00
2022-08-16T13:12:07.659Z,36.50
2022-08-16T13:14:40.147Z,39.10
2022-08-16T13:17:17.084Z,40.00
2022-08-16T13:20:07.219Z,41.20
2022-08-16T13:22:46.720Z,42.70
2022-08-16T13:25:20.921Z,44.50
2022-08-16T13:28:02.949Z,45.10
2022-08-16T13:30:36.030Z,45.00
2022-08-16T13:33:12.327Z,44.20
2022-08-16T13:35:45.798Z,45.60
2022-08-16T13:38:29.063Z,45.70
2022-08-16T13:41:00.118Z,47.70
2022-08-16T13:43:29.169Z,48.60
2022-08-16T13:46:06.686Z,51.10
2022-08-16T13:48:43.394Z,48.50
2022-08-16T13:51:17.453Z,47.70
2022-08-16T13:53:59.637Z,47.90
2022-08-16T13:56:39.985Z,38.00
2022-08-16T13:59:14.299Z,26.20
2022-08-16T14:01:55.439Z,28.80
2022-08-16T14:04:32.326Z,31.90
2022-08-16T14:07:01.399Z,32.10
2022-08-16T14:09:30.237Z,26.60
2022-08-16T14:12:00.849Z,18.30
2022-08-16T14:14:30.158Z,12.30
2022-08-16T14:17:02.348Z,8.50
2022-08-16T14:19:32.082Z,6.50
2022-08-16T14:22:15.388Z,4.50
2022-08-16T14:24:51.403Z,6.90
2022-08-16T14:27:21.769Z,10.30
2022-08-16T14:29:50.125Z,15.40
2022-08-16T14:32:34.209Z,17.00
2022-08-16T14:35:15.912Z,16.30
2022-08-16T14:37:45.620Z,14.60
2022-08-16T14:40:20.420Z,18.40
2022-08-16T14:42:48.414Z,21.10
2022-08-16T14:45:21.157Z,22.90
2022-08-16T14:47:49.883Z,23.80
2022-08-16T14:50:20.360Z,24.10
2022-08-16T14:52:57.681Z,21.60
2022-08-16T14:55:27.407Z,19.90
2022-08-16T14:57:54.984Z,21.50
2022-08-16T15:00:32.991Z,23.20
2022-08-16T15:03:02.688Z,24.10
2022-08-16T15:05:36.503Z,23.60
2022-08-16T15:08:04.124Z,24.10
2022-08-16T15:10:33.579Z,25.10
2022-08-16T15:13:09.566Z,25.10
2022-08-16T15:15:37.953Z,25.70
2022-08-16T15:18:06.224Z,26.90
2022-08-16T15:20:39.711Z,29.10
2022-08-16T15:23:09.237Z,29.20
2022-08-16T15:25:47.354Z,28.70
2022-08-16T15:28:32.690Z,29.00
2022-08-16T15:31:05.943Z,29.90
2022-08-16T15:33:46.291Z,30.70
2022-08-16T15:36:19.291Z,31.40
2022-08-16T15:39:03.022Z,31.20
2022-08-16T15:41:44.307Z,31.90
2022-08-16T15:44:22.866Z,32.60
2022-08-16T15:46:58.968Z,33.00
2022-08-16T15:49:37.102Z,32.40
2022-08-16T15:52:20.734Z,32.50
2022-08-16T15:54:53.324Z,32.10
2022-08-16T15:57:26.240Z,30.40
2022-08-16T15:59:55.870Z,31.30
2022-08-16T16:02:31.291Z,31.90
2022-08-16T16:05:06.628Z,32.80
2022-08-16T16:07:34.758Z,33.30
2022-08-16T16:10:13.165Z,31.50
2022-08-16T16:12:53.013Z,31.40
2022-08-16T16:15:25.194Z,31.10
2022-08-16T16:17:53.375Z,31.70
2022-08-16T16:20:27.160Z,31.50
2022-08-16T16:23:00.020Z,31.40
2022-08-16T16:25:30.856Z,31.40
2022-08-16T16:28:00.025Z,32.50
2022-08-16T16:30:37.594Z,33.40
2022-08-16T16:33:20.416Z,34.80
2022-08-16T16:35:55.126Z,35.60
2022-08-16T16:38:31.203Z,39.30
2022-08-16T16:41:01.383Z,38.30
2022-08-16T16:43:31.433Z,39.00
2022-08-16T16:45:59.030Z,40.70
2022-08-16T16:48:34.421Z,41.30
2022-08-16T16:51:09.035Z,38.70
2022-08-16T16:53:42.191Z,38.90
2022-08-16T16:56:19.654Z,39.50
2022-08-16T16:58:56.513Z,42.00
2022-08-16T17:01:56.515Z,39.50
2022-08-16T17:04:27.356Z,40.80
2022-08-16T17:07:03.508Z,42.20
2022-08-16T17:09:30.770Z,43.30
2022-08-16T17:11:58.771Z,41.10
2022-08-16T17:14:33.683Z,42.50
2022-08-16T17:17:05.024Z,40.70
2022-08-16T17:19:32.315Z,41.40
2022-08-16T17:22:00.555Z,41.40
2022-08-16T17:24:31.395Z,41.70
2022-08-16T17:27:09.099Z,42.70
2022-08-16T17:29:42.896Z,44.70
2022-08-16T17:32:46.661Z,46.20
2022-08-16T17:35:13.950Z,44.00
2022-08-16T17:37:51.588Z,43.90
2022-08-16T17:40:40.800Z,44.30
2022-08-16T17:43:16.438Z,44.20
2022-08-16T17:45:43.991Z,48.50
2022-08-16T17:48:11.382Z,52.10
2022-08-16T17:50:41.801Z,51.00
2022-08-16T17:53:12.362Z,53.50
2022-08-16T17:55:42.558Z,51.40
2022-08-16T17:58:22.503Z,51.90
2022-08-16T18:00:53.441Z,55.80
2022-08-16T18:04:02.555Z,56.60
2022-08-16T18:06:13.394Z,57.00
2022-08-16T18:08:41.476Z,58.90
2022-08-16T18:11:10.162Z,60.10
2022-08-16T18:13:43.291Z,59.90
2022-08-16T18:16:11.465Z,62.20
2022-08-16T18:18:38.540Z,62.60
2022-08-16T18:21:24.617Z,62.90
2022-08-16T18:23:54.094Z,65.10
2022-08-16T18:26:20.969Z,66.50
2022-08-16T18:28:47.750Z,67.20
2022-08-16T18:31:14.606Z,62.70
2022-08-16T18:33:44.174Z,67.00
2022-08-16T18:36:20.860Z,65.90
2022-08-16T18:38:49.899Z,66.60
2022-08-16T18:41:18.034Z,64.30
2022-08-16T18:44:22.550Z,64.30
2022-08-16T18:46:44.956Z,63.10
2022-08-16T18:49:17.762Z,61.80
2022-08-16T18:51:45.351Z,66.90
2022-08-16T18:54:14.883Z,64.40
2022-08-16T18:56:55.774Z,65.90
2022-08-16T18:59:28.706Z,70.60
2022-08-16T19:02:00.238Z,65.10
2022-08-16T19:04:47.791Z,64.60
2022-08-16T19:07:30.790Z,64.10
2022-08-16T19:10:01.489Z,64.10
2022-08-16T19:12:38.456Z,69.40
2022-08-16T19:15:13.328Z,71.00
2022-08-16T19:17:44.262Z,71.70
2022-08-16T19:20:12.814Z,66.90
2022-08-16T19:25:46.602Z,65.40
2022-08-16T19:28:49.709Z,64.60
2022-08-16T19:31:04.703Z,65.30
2022-08-16T19:33:31.675Z,66.00
2022-08-16T19:35:58.543Z,64.60
2022-08-16T19:38:25.717Z,65.20
2022-08-16T19:40:54.694Z,69.50
2022-08-16T19:43:24.080Z,76.10
2022-08-16T19:45:52.745Z,78.20
2022-08-16T19:48:19.597Z,80.70
2022-08-16T19:50:46.470Z,81.80
2022-08-16T19:53:19.174Z,82.00
2022-08-16T19:55:47.668Z,84.50
2022-08-16T19:58:15.941Z,84.10
2022-08-16T20:00:46.480Z,84.00
2022-08-16T20:03:17.509Z,84.70
2022-08-16T20:05:45.011Z,87.20
2022-08-16T20:08:16.553Z,88.60
2022-08-16T20:10:47.057Z,89.90
2022-08-16T20:13:22.902Z,91.00
2022-08-16T20:15:50.968Z,91.70
2022-08-16T20:18:24.711Z,92.00
2022-08-16T20:20:55.904Z,92.60
2022-08-16T20:23:25.820Z,93.40
2022-08-16T20:25:56.020Z,93.90
2022-08-16T20:28:47.691Z,93.30
2022-08-16T20:31:11.477Z,94.00
2022-08-16T20:33:38.340Z,94.40
2022-08-16T20:36:07.565Z,94.70
2022-08-16T20:38:35.358Z,95.10
2022-08-16T20:41:02.679Z,95.40
2022-08-16T20:43:29.483Z,95.80
2022-08-16T20:45:56.287Z,96.00
2022-08-16T20:48:23.109Z,96.40
2022-08-16T20:50:49.926Z,96.00
2022-08-16T20:53:19.042Z,97.10
2022-08-16T20:55:48.462Z,98.10
2022-08-16T20:58:15.842Z,98.20
2022-08-16T21:00:42.865Z,98.50
2022-08-16T21:03:13.111Z,99.00
2022-08-16T21:05:40.196Z,99.40
2022-08-16T21:08:51.067Z,99.90
2022-08-16T21:10:56.723Z,99.90
2022-08-16T21:13:25.842Z,99.90
2022-08-16T21:15:53.032Z,99.90
2022-08-16T21:18:19.963Z,99.90
2022-08-16T21:20:47.285Z,99.90
2022-08-16T21:23:14.275Z,99.90
2022-08-16T21:25:57.717Z,99.90
2022-08-16T21:28:40.447Z,99.90
2022-08-16T21:31:16.996Z,99.90
2022-08-16T21:33:47.485Z,99.90
2022-08-16T21:36:35.262Z,99.90
2022-08-16T21:39:06.042Z,99.90
2022-08-16T21:41:34.420Z,99.90
2022-08-16T21:44:03.606Z,99.90
2022-08-16T21:46:35.350Z,99.90
2022-08-16T21:49:04.566Z,99.90
2022-08-16T21:51:36.162Z,99.90
2022-08-16T21:54:05.515Z,99.90
2022-08-16T21:56:32.571Z,99.90
2022-08-16T21:59:06.307Z,99.90
2022-08-16T22:01:33.163Z,99.90
2022-08-16T22:04:35.478Z,99.90
2022-08-16T22:06:52.655Z,99.90
2022-08-16T22:09:19.675Z,99.90
2022-08-16T22:11:46.512Z,99.90
2022-08-16T22:14:13.476Z,99.90
2022-08-16T22:16:41.772Z,99.90
2022-08-16T22:19:08.783Z,99.90
2022-08-16T22:21:36.260Z,99.90
2022-08-16T22:24:03.580Z,99.90
2022-08-16T22:26:36.077Z,99.90
2022-08-16T22:29:11.118Z,99.90
2022-08-16T22:31:40.401Z,99.90
2022-08-16T22:34:08.876Z,99.90
2022-08-16T22:36:36.509Z,99.90
2022-08-16T22:39:07.659Z,99.90
2022-08-16T22:41:36.431Z,99.90
2022-08-16T22:44:05.801Z,99.90
2022-08-16T22:46:34.874Z,99.90
2022-08-16T22:49:02.575Z,99.90
2022-08-16T22:51:29.691Z,99.90
2022-08-16T22:53:57.014Z,99.90
2022-08-16T22:56:24.873Z,99.90
2022-08-16T22:58:52.076Z,99.90
2022-08-16T23:01:23.921Z,99.90
2022-08-16T23:03:51.270Z,99.90
2022-08-16T23:06:18.673Z,99.90
2022-08-16T23:08:45.548Z,99.90
2022-08-16T23:11:21.117Z,99.90
2022-08-16T23:13:54.713Z,99.90
2022-08-16T23:16:32.480Z,99.90
2022-08-16T23:19:08.239Z,99.90
2022-08-16T23:21:37.248Z,99.90
2022-08-16T23:24:07.660Z,99.90
2022-08-16T23:26:46.083Z,99.90
2022-08-16T23:29:25.508Z,99.90
2022-08-16T23:31:55.899Z,99.90
2022-08-16T23:34:23.271Z,99.90
2022-08-16T23:36:50.201Z,99.90
2022-08-16T23:39:16.988Z,99.90
2022-08-16T23:41:44.606Z,99.90
2022-08-16T23:44:55.563Z,99.90
2022-08-16T23:47:00.447Z,99.90
2022-08-16T23:49:56.134Z,99.90
2022-08-16T23:52:16.847Z,99.90
2022-08-16T23:54:43.577Z,99.90
2022-08-16T23:57:10.838Z,99.90
2022-08-16T23:59:48.490Z,99.90
